Time;durP1;ratioP1;P1;durP2;ratioP2;P2;SDS_P1;SDS_P2;PMS_P1;PMS_P2;Temp;Humidity;BMP_temperature;BMP_pressure;BME280_temperature;BME280_humidity;BME280_pressure;Samples;Min_cycle;Max_cycle;Signal;HPM_P1;HPM_P2
2021/12/07 00:01:13;;;;;;;12.95;8.43;;;;;;;0.86;74.65;96005.75;5031914;28;20499;-75
2021/12/07 00:03:41;;;;;;;11.70;8.82;;;;;;;0.87;74.59;95997.09;5032912;28;20272;-75
2021/12/07 00:06:09;;;;;;;11.63;8.25;;;;;;;0.85;74.23;95997.22;5032502;28;20475;-74
2021/12/07 00:08:37;;;;;;;11.45;8.68;;;;;;;0.86;74.58;95998.06;5032450;28;20041;-75
2021/12/07 00:11:04;;;;;;;13.02;8.30;;;;;;;0.94;75.33;95998.16;5032722;28;20049;-75
2021/12/07 00:13:36;;;;;;;12.18;8.88;;;;;;;1.02;75.26;95986.25;5032589;28;20507;-75
2021/12/07 00:16:04;;;;;;;12.07;8.05;;;;;;;1.10;74.56;95992.47;5034349;28;20077;-75
2021/12/07 00:18:33;;;;;;;11.95;7.75;;;;;;;1.10;73.98;95993.28;5032438;28;20049;-75
2021/12/07 00:21:01;;;;;;;10.80;8.02;;;;;;;1.15;75.34;95996.25;5032264;28;20064;-75
2021/12/07 00:23:28;;;;;;;11.32;7.80;;;;;;;1.24;75.25;96005.69;5032557;28;20053;-74
2021/12/07 00:25:57;;;;;;;11.25;7.05;;;;;;;1.26;74.01;96010.69;5032256;28;20049;-75
2021/12/07 00:28:25;;;;;;;10.63;7.25;;;;;;;1.24;73.67;96015.16;5032665;28;20053;-75
2021/12/07 00:30:55;;;;;;;12.05;8.30;;;;;;;1.22;73.30;96017.88;5032362;28;20057;-75
2021/12/07 00:33:36;;;;;;;9.98;7.57;;;;;;;1.22;73.37;96014.47;5032201;28;20123;-75
2021/12/07 00:36:05;;;;;;;12.40;8.45;;;;;;;1.22;73.35;96017.06;5032231;28;20053;-75
2021/12/07 00:38:33;;;;;;;12.35;8.18;;;;;;;1.20;73.63;96019.78;5032105;28;20075;-75
2021/12/07 00:41:01;;;;;;;9.60;7.47;;;;;;;1.22;73.38;96015.31;5032000;28;20504;-75
2021/12/07 00:43:32;;;;;;;13.32;8.15;;;;;;;1.21;73.60;96000.84;5032276;28;20053;-75
2021/12/07 00:46:01;;;;;;;11.43;8.25;;;;;;;1.21;73.39;96003.41;5032032;28;20115;-75
2021/12/07 00:48:30;;;;;;;11.00;7.60;;;;;;;1.19;74.05;96000.16;5032272;28;20049;-75
2021/12/07 00:50:59;;;;;;;11.73;8.25;;;;;;;1.17;73.65;95991.78;5032016;28;20112;-75
2021/12/07 00:53:29;;;;;;;11.68;8.88;;;;;;;1.15;73.56;95980.81;5032078;28;20046;-75
2021/12/07 00:56:01;;;;;;;11.25;7.65;;;;;;;1.11;73.39;95978.69;5031800;28;20400;-75
2021/12/07 00:58:30;;;;;;;13.60;8.23;;;;;;;1.08;73.52;95971.25;5032016;28;20057;-75
2021/12/07 01:01:02;;;;;;;11.40;8.00;;;;;;;1.05;73.71;95959.50;5031912;28;20133;-75
2021/12/07 01:03:30;;;;;;;12.57;9.55;;;;;;;1.06;74.06;95950.84;5032111;28;20092;-75
2021/12/07 01:06:16;;;;;;;15.02;9.68;;;;;;;1.08;74.09;95954.09;5031746;28;20057;-74
2021/12/07 01:09:09;;;;;;;11.23;8.68;;;;;;;1.14;74.11;95957.88;5031860;28;20056;-74
2021/12/07 01:25:52;;;;;;;13.52;9.75;;;;;;;1.07;74.28;95944.75;5046926;28;20050;-74
2021/12/07 01:28:25;;;;;;;11.95;8.48;;;;;;;1.04;74.11;95952.75;5047481;28;20068;-73
2021/12/07 01:30:58;;;;;;;;;;;;;;;1.12;74.85;95960.56;5044740;28;20049;-74
2021/12/07 01:36:24;;;;;;;15.45;9.02;;;;;;;1.15;74.21;95972.31;5017802;28;20054;-74
2021/12/07 01:42:49;;;;;;;12.90;9.07;;;;;;;1.26;75.38;95979.06;5035735;28;20080;-75
2021/12/07 01:44:47;;;;;;;13.35;9.32;;;;;;;1.35;75.25;95975.66;5035545;28;20058;-74
2021/12/07 01:50:18;;;;;;;13.38;9.65;;;;;;;1.56;76.21;95983.97;5014994;28;20050;-75
2021/12/07 01:53:00;;;;;;;14.25;9.52;;;;;;;1.67;76.45;95982.19;5035511;28;20053;-75
2021/12/07 02:00:58;;;;;;;14.57;10.00;;;;;;;1.73;76.65;95977.28;5002031;28;20499;-76
2021/12/07 02:03:28;;;;;;;16.63;11.52;;;;;;;1.76;76.87;95973.59;5035125;28;20132;-75
2021/12/07 02:05:56;;;;;;;17.17;11.25;;;;;;;1.74;76.58;95965.22;5034802;28;20050;-75
2021/12/07 02:08:24;;;;;;;16.98;11.93;;;;;;;1.64;76.53;95960.94;5034860;28;20062;-75
2021/12/07 02:10:57;;;;;;;19.27;12.30;;;;;;;1.55;76.93;95964.38;5034660;28;20477;-74
2021/12/07 02:16:08;;;;;;;20.02;12.77;;;;;;;1.38;77.29;95960.78;5033539;28;20353;-75
2021/12/07 02:18:36;;;;;;;21.27;13.98;;;;;;;1.34;77.67;95958.63;5035042;28;20045;-74
2021/12/07 02:21:16;;;;;;;19.00;12.45;;;;;;;1.38;78.80;95965.91;5034633;28;20053;-75
2021/12/07 02:23:44;;;;;;;18.88;13.02;;;;;;;1.41;78.18;95957.91;5034015;28;20526;-75
2021/12/07 02:26:12;;;;;;;21.23;13.82;;;;;;;1.37;77.93;95955.75;5034144;28;20064;-75
2021/12/07 02:28:40;;;;;;;22.88;14.48;;;;;;;1.30;77.98;95944.44;5034713;28;20045;-75
2021/12/07 02:31:09;;;;;;;24.10;14.15;;;;;;;1.28;78.53;95948.91;5034764;28;20052;-75
2021/12/07 02:33:37;;;;;;;19.70;12.60;;;;;;;1.30;79.02;95952.13;5034414;28;20079;-75
2021/12/07 02:36:06;;;;;;;19.42;13.10;;;;;;;1.31;78.90;95946.88;5034390;28;20053;-74
2021/12/07 02:38:35;;;;;;;20.52;13.05;;;;;;;1.34;78.75;95948.34;5034228;28;20057;-75
2021/12/07 02:41:04;;;;;;;19.30;12.52;;;;;;;1.38;79.10;95954.81;5034356;28;20269;-75
2021/12/07 02:43:31;;;;;;;17.08;11.32;;;;;;;1.40;78.68;95933.16;5034515;28;20053;-74
2021/12/07 02:46:00;;;;;;;15.75;9.77;;;;;;;1.38;78.84;95936.84;5033861;28;20470;-75
2021/12/07 02:48:27;;;;;;;14.65;9.80;;;;;;;1.35;78.62;95940.47;5034078;28;20072;-76
2021/12/07 02:50:55;;;;;;;15.02;10.55;;;;;;;1.37;79.37;95945.47;5034126;28;20041;-74
2021/12/07 02:53:26;;;;;;;15.27;8.68;;;;;;;1.44;79.10;95949.09;5033857;28;20060;-73
2021/12/07 02:55:58;;;;;;;15.02;9.68;;;;;;;1.49;79.14;95957.22;5033979;28;20060;-75
2021/12/07 02:58:26;;;;;;;14.10;10.32;;;;;;;1.52;78.71;95951.78;5033964;28;20049;-75
2021/12/07 03:01:01;;;;;;;11.80;8.23;;;;;;;1.54;78.87;95952.44;5034128;28;20045;-75
2021/12/07 03:03:33;;;;;;;12.85;8.65;;;;;;;1.57;78.92;95954.72;5033791;28;20085;-75
2021/12/07 03:06:12;;;;;;;8.68;5.07;;;;;;;1.65;79.68;95962.53;5033938;28;20049;-75
2021/12/07 03:28:04;;;;;;;3.28;2.97;;;;;;;2.30;79.35;95992.56;5033127;28;20061;-75
2021/12/07 03:30:32;;;;;;;3.08;2.78;;;;;;;2.35;79.27;95994.69;5033173;28;20137;-74
2021/12/07 03:33:02;;;;;;;2.72;2.47;;;;;;;2.38;79.26;96000.34;5033055;28;20064;-74
2021/12/07 03:35:30;;;;;;;2.78;2.38;;;;;;;2.41;79.20;95997.50;5033533;28;20515;-75
2021/12/07 03:37:58;;;;;;;3.28;2.40;;;;;;;2.44;79.19;96010.06;5034108;28;20625;-75
2021/12/07 03:40:26;;;;;;;3.13;2.63;;;;;;;2.46;78.56;96007.34;5045836;28;20045;-74
2021/12/07 03:42:54;;;;;;;3.67;3.08;;;;;;;2.48;78.79;96011.38;5048017;28;20049;-74
2021/12/07 03:45:24;;;;;;;3.67;2.97;;;;;;;2.52;79.28;96011.13;5047586;28;20049;-73
2021/12/07 03:47:52;;;;;;;6.50;2.90;;;;;;;2.55;78.98;96006.47;5038949;28;20419;-75
2021/12/07 03:50:21;;;;;;;3.83;3.00;;;;;;;2.57;78.99;96008.91;5036877;28;20427;-74
2021/12/07 03:52:49;;;;;;;3.28;2.80;;;;;;;2.58;78.93;96002.78;5035281;28;20050;-74
2021/12/07 03:55:17;;;;;;;3.20;2.90;;;;;;;2.59;79.05;96007.00;5034172;28;20045;-74
2021/12/07 03:57:45;;;;;;;3.55;2.88;;;;;;;2.61;79.33;96025.69;5032913;28;20434;-75
2021/12/07 04:00:15;;;;;;;2.50;2.30;;;;;;;2.61;78.85;96031.63;5033124;28;20045;-75
2021/12/07 04:02:46;;;;;;;3.97;2.70;;;;;;;2.58;78.07;96026.78;5033199;28;20060;-74
2021/12/07 04:05:18;;;;;;;3.95;2.50;;;;;;;2.59;78.70;96032.75;5033573;28;20055;-75
2021/12/07 04:07:46;;;;;;;3.45;3.10;;;;;;;2.59;78.29;96022.44;5033139;28;20506;-74
2021/12/07 04:10:16;;;;;;;3.55;2.88;;;;;;;2.57;78.73;96029.50;5032677;28;20054;-75
2021/12/07 04:12:44;;;;;;;2.67;2.47;;;;;;;2.57;79.21;96034.66;5033039;28;20053;-74
2021/12/07 04:15:17;;;;;;;4.10;3.08;;;;;;;2.59;79.36;96030.16;5052003;23;20049;-76
2021/12/07 04:17:46;;;;;;;3.45;2.85;;;;;;;2.60;79.15;96024.03;5031689;28;20045;-77
2021/12/07 04:20:16;;;;;;;3.38;2.55;;;;;;;2.61;79.28;96046.28;5032509;28;20057;-77
2021/12/07 04:22:44;;;;;;;3.53;2.60;;;;;;;2.61;78.68;96046.28;5032486;28;20053;-75
2021/12/07 04:25:13;;;;;;;4.03;2.25;;;;;;;2.61;78.57;96056.56;5032425;28;20064;-76
2021/12/07 04:27:41;;;;;;;2.50;2.30;;;;;;;2.62;79.28;96047.88;5032108;28;20482;-76
2021/12/07 04:30:16;;;;;;;2.58;2.03;;;;;;;2.66;79.26;96050.03;5033599;28;20423;-75
2021/12/07 04:32:43;;;;;;;3.03;2.63;;;;;;;2.68;79.21;96052.47;5032533;28;20049;-77
2021/12/07 04:35:13;;;;;;;1.55;1.42;;;;;;;2.68;78.76;96057.59;5032287;28;20053;-75
2021/12/07 04:37:42;;;;;;;1.45;1.33;;;;;;;2.68;79.30;96063.56;5032014;28;20049;-76
2021/12/07 04:40:13;;;;;;;2.17;1.70;;;;;;;2.71;79.20;96059.88;5032288;28;20400;-77
2021/12/07 04:42:41;;;;;;;1.38;1.27;;;;;;;2.72;78.74;96053.78;5032177;28;20396;-75
2021/12/07 04:45:13;;;;;;;1.60;1.50;;;;;;;2.71;78.73;96059.88;5031901;28;20522;-75
2021/12/07 04:47:53;;;;;;;1.70;1.60;;;;;;;2.70;78.75;96055.69;5031516;28;20053;-77
2021/12/07 04:50:37;;;;;;;1.33;1.23;;;;;;;2.73;78.56;96060.53;5031932;28;20049;-75
2021/12/07 04:58:41;;;;;;;1.73;1.50;;;;;;;2.75;78.88;96068.94;5032224;28;20434;-76
2021/12/07 05:01:11;;;;;;;1.70;1.60;;;;;;;2.76;78.73;96064.63;5031888;28;20049;-75
2021/12/07 05:03:40;;;;;;;1.90;1.70;;;;;;;2.77;78.56;96074.75;5032017;28;20057;-78
2021/12/07 05:06:11;;;;;;;2.10;1.75;;;;;;;2.78;79.15;96075.59;5031365;28;20675;-76
2021/12/07 05:08:43;;;;;;;2.10;1.90;;;;;;;2.81;79.41;96076.09;5031901;28;20054;-76
2021/12/07 05:11:43;;;;;;;1.52;1.40;;;;;;;2.82;79.27;96076.88;5031856;28;20053;-76
2021/12/07 05:14:17;;;;;;;2.47;2.00;;;;;;;2.85;79.15;96085.16;5031398;28;20491;-76
2021/12/07 05:39:05;;;;;;;2.47;1.88;;;;;;;2.83;78.55;96123.13;5032660;28;20443;-77
2021/12/07 05:41:33;;;;;;;3.20;1.80;;;;;;;2.81;78.56;96125.03;5031963;28;20073;-76
2021/12/07 05:44:01;;;;;;;3.22;2.10;;;;;;;2.81;78.80;96124.22;5032347;28;20061;-77
2021/12/07 05:46:28;;;;;;;1.67;1.58;;;;;;;2.78;77.92;96125.31;5031886;28;20404;-77
2021/12/07 05:48:56;;;;;;;2.67;1.67;;;;;;;2.79;78.16;96121.78;5032661;28;20060;-78
2021/12/07 05:51:23;;;;;;;3.05;1.77;;;;;;;2.80;78.44;96127.75;5032254;28;20052;-75
2021/12/07 05:53:51;;;;;;;31.05;18.65;;;;;;;2.80;78.37;96125.16;5031400;28;20430;-74
2021/12/07 05:56:20;;;;;;;31.30;17.83;;;;;;;2.82;78.47;96124.09;5032281;28;20458;-75
2021/12/07 05:58:47;;;;;;;4.55;3.08;;;;;;;2.83;78.59;96133.41;5039920;28;20076;-74
2021/12/07 06:01:15;;;;;;;5.47;2.00;;;;;;;2.82;78.49;96131.81;5043324;28;20069;-76
2021/12/07 06:03:42;;;;;;;3.20;1.80;;;;;;;2.81;78.52;96130.19;5037732;28;20057;-74
2021/12/07 06:06:14;;;;;;;2.13;1.92;;;;;;;2.80;78.38;96131.16;5035036;28;20081;-75
2021/12/07 06:08:41;;;;;;;4.10;1.88;;;;;;;2.81;78.48;96129.38;5035749;28;20076;-78
2021/12/07 06:11:09;;;;;;;2.53;1.65;;;;;;;2.82;78.53;96131.81;5036641;28;20065;-78
2021/12/07 06:13:38;;;;;;;1.65;1.55;;;;;;;2.81;78.66;96135.31;5039531;28;20049;-78
2021/12/07 06:16:08;;;;;;;2.55;2.08;;;;;;;2.81;78.83;96140.47;5040026;28;20064;-80
2021/12/07 06:18:36;;;;;;;3.53;2.25;;;;;;;2.82;78.91;96133.56;5034366;28;20042;-78
2021/12/07 06:21:04;;;;;;;2.17;1.98;;;;;;;2.83;78.83;96127.47;5034774;28;20046;-77
2021/12/07 06:23:32;;;;;;;2.35;1.63;;;;;;;2.83;78.50;96130.84;5035639;28;20068;-78
2021/12/07 06:26:00;;;;;;;1.70;1.40;;;;;;;2.82;78.32;96131.81;5035523;28;20053;-76
2021/12/07 06:28:27;;;;;;;1.63;1.35;;;;;;;2.82;77.98;96128.41;5034870;28;20053;-76
2021/12/07 06:30:56;;;;;;;2.03;1.38;;;;;;;2.79;77.75;96136.44;5035024;28;20045;-75
2021/12/07 06:33:26;;;;;;;2.38;1.35;;;;;;;2.77;78.70;96134.00;5034185;28;20294;-74
2021/12/07 06:35:57;;;;;;;3.05;1.70;;;;;;;2.76;78.65;96142.69;5033914;28;20408;-74
2021/12/07 06:38:25;;;;;;;3.17;1.88;;;;;;;2.77;78.75;96141.72;5033956;28;20103;-74
2021/12/07 06:40:53;;;;;;;1.92;1.75;;;;;;;2.76;79.06;96139.31;5034022;28;20049;-75
2021/12/07 06:43:21;;;;;;;1.67;1.50;;;;;;;2.75;79.01;96135.91;5033853;28;20050;-76
2021/12/07 06:45:49;;;;;;;2.25;1.55;;;;;;;2.76;79.23;96153.00;5033436;28;20060;-76
2021/12/07 06:48:18;;;;;;;1.88;1.55;;;;;;;2.76;79.31;96155.56;5027929;28;20048;-76
2021/12/07 06:50:46;;;;;;;2.45;1.63;;;;;;;2.76;79.20;96147.84;5034159;28;20049;-75
2021/12/07 06:53:14;;;;;;;1.75;1.65;;;;;;;2.76;79.22;96147.03;5033267;28;20049;-74
2021/12/07 06:55:41;;;;;;;1.63;1.40;;;;;;;2.78;79.33;96156.22;5034338;28;20045;-74
2021/12/07 06:58:09;;;;;;;2.28;1.50;;;;;;;2.79;78.83;96157.84;5033363;28;20049;-75
2021/12/07 07:00:38;;;;;;;2.72;1.67;;;;;;;2.77;78.89;96159.75;5033076;28;20054;-74
2021/12/07 07:03:06;;;;;;;2.50;1.80;;;;;;;2.75;78.78;96166.00;5033095;28;20056;-74
2021/12/07 07:05:35;;;;;;;3.40;2.30;;;;;;;2.72;78.94;96172.25;5033171;28;20103;-75
2021/12/07 07:08:04;;;;;;;8.40;2.58;;;;;;;2.72;79.11;96177.41;5033002;28;20140;-77
2021/12/07 07:10:31;;;;;;;4.03;1.80;;;;;;;2.72;79.08;96179.97;5032990;28;20056;-75
2021/12/07 07:12:59;;;;;;;6.05;1.85;;;;;;;2.71;78.61;96180.91;5032744;28;20057;-75
2021/12/07 07:15:27;;;;;;;2.92;2.03;;;;;;;2.70;78.55;96184.47;5033022;28;20049;-74
2021/12/07 07:17:54;;;;;;;2.50;1.83;;;;;;;2.71;78.82;96185.28;5032404;28;20521;-75
2021/12/07 07:20:22;;;;;;;2.63;1.77;;;;;;;2.70;78.76;96189.63;5033201;28;20064;-75
2021/12/07 07:22:52;;;;;;;5.63;1.67;;;;;;;2.67;78.77;96195.06;5033721;28;20056;-75
2021/12/07 07:25:19;;;;;;;2.80;1.90;;;;;;;2.69;79.25;96211.19;5032559;28;20072;-76
2021/12/07 07:27:48;;;;;;;3.55;1.77;;;;;;;2.68;79.33;96204.41;5034178;28;20045;-77
2021/12/07 07:30:18;;;;;;;2.80;1.90;;;;;;;2.70;79.42;96204.25;5034193;28;20525;-75
2021/12/07 07:32:47;;;;;;;4.20;1.98;;;;;;;2.70;79.42;96209.41;5033463;28;20053;-76
2021/12/07 07:35:16;;;;;;;6.15;1.85;;;;;;;2.71;79.57;96211.81;5033618;28;20119;-76
2021/12/07 07:37:45;;;;;;;3.05;2.00;;;;;;;2.74;80.14;96216.72;5033495;28;20060;-76
2021/12/07 07:40:16;;;;;;;2.75;1.70;;;;;;;2.76;80.13;96225.09;5032801;28;20507;-76
2021/12/07 07:42:44;;;;;;;8.30;2.00;;;;;;;2.79;79.80;96232.53;5032582;28;20046;-77
2021/12/07 07:45:12;;;;;;;7.35;2.35;;;;;;;2.81;79.51;96233.22;5031381;28;20058;-76
2021/12/07 07:47:40;;;;;;;4.97;2.28;;;;;;;2.84;79.95;96232.09;5032669;28;20075;-76
2021/12/07 07:50:10;;;;;;;8.38;2.17;;;;;;;2.85;79.53;96239.72;5032707;28;20046;-75
2021/12/07 07:52:38;;;;;;;13.00;2.17;;;;;;;2.87;79.77;96232.66;5034084;28;20045;-75
2021/12/07 07:55:07;;;;;;;11.00;2.20;;;;;;;2.87;79.08;96237.81;5033910;28;20053;-77
2021/12/07 07:57:36;;;;;;;15.52;3.10;;;;;;;2.89;79.48;96233.31;5033258;28;20051;-76
2021/12/07 08:00:06;;;;;;;4.30;1.83;;;;;;;2.90;79.65;96249.56;5033423;28;20046;-75
2021/12/07 08:02:34;;;;;;;2.40;1.80;;;;;;;2.92;79.53;96252.03;5035905;28;20044;-75
2021/12/07 08:05:02;;;;;;;8.23;2.05;;;;;;;2.93;79.78;96246.75;5053744;28;20057;-77
2021/12/07 08:07:29;;;;;;;12.18;2.45;;;;;;;2.95;79.14;96244.84;5053114;28;20525;-75
2021/12/07 08:09:57;;;;;;;7.93;2.13;;;;;;;2.96;79.33;96255.94;5052821;28;20060;-75
2021/12/07 08:12:25;;;;;;;6.55;1.90;;;;;;;2.97;78.72;96257.56;5053412;28;20049;-75
2021/12/07 08:14:53;;;;;;;5.10;2.28;;;;;;;2.97;78.74;96257.56;5052796;28;20489;-74
2021/12/07 08:17:21;;;;;;;8.43;2.50;;;;;;;2.98;78.49;96266.91;5051846;28;20049;-74
2021/12/07 08:19:49;;;;;;;4.63;1.98;;;;;;;3.00;78.64;96268.38;5052232;28;20087;-75
2021/12/07 08:22:17;;;;;;;1.67;1.50;;;;;;;3.01;78.73;96269.19;5051691;28;20049;-75
2021/12/07 08:24:45;;;;;;;3.13;2.10;;;;;;;3.00;79.07;96265.81;5052263;28;20049;-76
2021/12/07 08:27:13;;;;;;;2.70;2.38;;;;;;;3.01;79.08;96258.88;5051882;28;20060;-75
2021/12/07 08:29:57;;;;;;;3.92;1.90;;;;;;;3.01;78.97;96275.16;5052671;28;20502;-75
2021/12/07 08:32:25;;;;;;;3.58;2.17;;;;;;;3.01;78.51;96274.34;5053575;28;20059;-75
2021/12/07 08:34:52;;;;;;;3.63;2.08;;;;;;;3.01;78.44;96285.47;5052433;28;20048;-75
2021/12/07 08:37:20;;;;;;;5.95;2.25;;;;;;;3.02;78.08;96291.44;5033429;28;20053;-75
2021/12/07 08:39:47;;;;;;;3.58;2.00;;;;;;;3.04;78.08;96286.94;5031851;28;20053;-74
2021/12/07 08:42:17;;;;;;;5.63;2.53;;;;;;;3.03;78.13;96280.97;5033764;28;20053;-74
2021/12/07 08:44:44;;;;;;;9.98;2.20;;;;;;;3.03;78.20;96282.75;5033361;28;20049;-76
2021/12/07 08:47:14;;;;;;;3.95;1.98;;;;;;;3.06;77.71;96285.03;5033093;28;20057;-75
2021/12/07 08:50:01;;;;;;;2.67;2.10;;;;;;;3.08;77.61;96290.84;5031314;28;20503;-76
2021/12/07 08:52:29;;;;;;;2.03;1.77;;;;;;;3.09;77.76;96292.50;5032665;28;20060;-75
2021/12/07 09:00:27;;;;;;;2.95;2.30;;;;;;;3.13;78.27;96293.84;5031674;28;20518;-76
2021/12/07 09:02:56;;;;;;;6.63;2.33;;;;;;;3.16;78.28;96300.47;5036735;28;20049;-76
2021/12/07 09:05:24;;;;;;;3.90;2.70;;;;;;;3.21;78.79;96298.25;5044412;28;20060;-76
2021/12/07 09:07:51;;;;;;;3.75;2.10;;;;;;;3.25;77.73;96308.13;5031734;28;20053;-77
2021/12/07 09:10:20;;;;;;;4.20;2.50;;;;;;;3.26;77.71;96306.41;5031488;28;20064;-76
2021/12/07 09:12:48;;;;;;;3.55;2.38;;;;;;;3.29;78.35;96319.00;5031205;28;20052;-74
2021/12/07 09:15:16;;;;;;;5.90;2.55;;;;;;;3.29;77.69;96314.63;5030585;28;20057;-75
2021/12/07 09:17:44;;;;;;;8.02;2.90;;;;;;;3.31;78.06;96317.09;5031283;28;20057;-76
2021/12/07 09:20:16;;;;;;;8.80;3.08;;;;;;;3.33;77.89;96324.69;5031658;28;20057;-76
2021/12/07 09:22:44;;;;;;;5.35;2.40;;;;;;;3.32;78.09;96317.88;5031706;28;20069;-76
2021/12/07 09:25:13;;;;;;;7.32;3.00;;;;;;;3.31;77.89;96322.25;5031435;28;20049;-75
2021/12/07 09:27:41;;;;;;;5.22;2.55;;;;;;;3.32;78.30;96318.69;5030958;28;20060;-75
2021/12/07 09:30:11;;;;;;;6.75;2.83;;;;;;;3.34;78.33;96327.09;5033634;28;20060;-74
2021/12/07 09:32:39;;;;;;;4.28;2.70;;;;;;;3.35;78.63;96317.63;5033175;28;20057;-75
2021/12/07 09:35:08;;;;;;;4.80;2.47;;;;;;;3.38;78.75;96317.31;5035384;28;20045;-75
2021/12/07 09:37:38;;;;;;;6.40;3.22;;;;;;;3.41;78.70;96312.69;5035161;28;20056;-75
2021/12/07 09:40:08;;;;;;;7.40;3.08;;;;;;;3.44;78.32;96316.75;5034862;28;20489;-75
2021/12/07 09:42:35;;;;;;;5.03;2.90;;;;;;;3.44;78.31;96309.81;5036839;28;20049;-75
2021/12/07 09:45:05;;;;;;;3.97;2.42;;;;;;;3.47;78.05;96316.44;5036076;28;20053;-75
2021/12/07 09:47:33;;;;;;;4.00;2.47;;;;;;;3.49;77.62;96319.69;5035016;28;20061;-77
2021/12/07 09:50:00;;;;;;;3.17;2.42;;;;;;;3.49;77.36;96317.13;5035902;28;20054;-77
2021/12/07 09:52:28;;;;;;;3.38;2.20;;;;;;;3.48;77.61;96321.47;5036572;28;20045;-76
2021/12/07 09:54:57;;;;;;;4.85;2.25;;;;;;;3.50;77.78;96313.59;5036959;28;20053;-78
2021/12/07 09:57:25;;;;;;;3.30;1.88;;;;;;;3.49;77.16;96320.50;5035813;28;20077;-76
2021/12/07 09:59:52;;;;;;;3.00;2.15;;;;;;;3.49;77.34;96317.91;5036044;28;20053;-75
2021/12/07 10:02:20;;;;;;;2.88;1.90;;;;;;;3.50;77.89;96314.41;5036072;28;20050;-76
2021/12/07 10:04:48;;;;;;;3.63;2.00;;;;;;;3.50;78.05;96323.91;5055208;28;20052;-77
2021/12/07 10:07:16;;;;;;;3.33;1.73;;;;;;;3.53;77.90;96326.19;5056052;28;20053;-75
2021/12/07 10:09:44;;;;;;;5.70;2.95;;;;;;;3.53;77.93;96321.03;5046309;28;20526;-75
2021/12/07 10:12:20;;;;;;;2.40;2.00;;;;;;;3.56;77.84;96322.50;5035132;28;20061;-75
2021/12/07 10:14:48;;;;;;;5.53;2.65;;;;;;;3.56;78.22;96323.31;5035323;28;20278;-76
2021/12/07 10:17:21;;;;;;;5.82;2.63;;;;;;;3.56;77.98;96320.72;5034977;28;20060;-75
2021/12/07 10:19:49;;;;;;;4.15;2.50;;;;;;;3.56;77.86;96325.88;5034535;28;20419;-75
2021/12/07 10:22:21;;;;;;;3.63;2.20;;;;;;;3.57;78.17;96332.69;5034406;28;20053;-76
2021/12/07 10:24:53;;;;;;;3.83;2.23;;;;;;;3.59;77.97;96323.03;5034527;28;20041;-76
2021/12/07 10:27:35;;;;;;;3.05;2.00;;;;;;;3.59;77.23;96320.47;5032626;28;20050;-76
2021/12/07 10:30:06;;;;;;;6.88;2.28;;;;;;;3.58;77.94;96329.13;5034262;28;20053;-75
2021/12/07 10:32:34;;;;;;;5.38;2.25;;;;;;;3.59;77.93;96322.22;5034175;28;20054;-75
2021/12/07 10:35:01;;;;;;;4.28;1.90;;;;;;;3.59;78.15;96320.47;5034093;28;20049;-75
2021/12/07 10:37:33;;;;;;;3.72;1.90;;;;;;;3.58;78.07;96329.13;5034270;28;20053;-76
2021/12/07 10:40:01;;;;;;;5.05;2.47;;;;;;;3.58;78.19;96333.50;5032925;28;20053;-76
2021/12/07 10:42:31;;;;;;;4.13;2.28;;;;;;;3.59;77.54;96329.97;5033850;28;20049;-75
2021/12/07 10:45:04;;;;;;;4.40;2.00;;;;;;;3.60;78.04;96329.00;5030447;28;20140;-76
2021/12/07 10:47:31;;;;;;;2.17;1.67;;;;;;;3.62;77.64;96325.31;5034326;28;20068;-75
2021/12/07 10:50:01;;;;;;;4.80;2.50;;;;;;;3.68;77.36;96329.91;5034401;28;20073;-75
2021/12/07 10:52:30;;;;;;;3.00;1.80;;;;;;;3.71;76.92;96323.63;5032923;28;20392;-78
2021/12/07 10:55:07;;;;;;;4.88;2.33;;;;;;;3.68;77.19;96319.59;5032257;28;20049;-76
2021/12/07 10:57:38;;;;;;;4.55;1.90;;;;;;;3.68;77.02;96319.59;5033693;28;20053;-75
2021/12/07 11:00:20;;;;;;;3.25;2.08;;;;;;;3.70;76.95;96335.72;5033869;28;20076;-75
2021/12/07 11:02:50;;;;;;;5.32;1.70;;;;;;;3.69;76.70;96328.94;5037645;28;20524;-74
2021/12/07 11:05:22;;;;;;;3.42;2.13;;;;;;;3.69;77.25;96328.94;5053636;28;20140;-75
2021/12/07 11:07:51;;;;;;;3.28;2.20;;;;;;;3.71;77.69;96318.47;5053396;28;20052;-74
2021/12/07 11:10:28;;;;;;;5.43;2.22;;;;;;;3.73;77.51;96326.88;5053809;28;20057;-74
2021/12/07 11:13:01;;;;;;;4.75;2.70;;;;;;;3.76;77.41;96313.72;5053462;28;20061;-74
2021/12/07 11:15:32;;;;;;;7.20;2.50;;;;;;;3.79;77.37;96310.03;5053162;28;20052;-74
2021/12/07 11:18:04;;;;;;;4.60;2.60;;;;;;;3.82;77.03;96309.72;5053090;28;20053;-75
2021/12/07 11:20:33;;;;;;;7.00;2.30;;;;;;;3.89;77.16;96297.84;5053469;28;20518;-75
2021/12/07 11:23:08;;;;;;;3.75;1.80;;;;;;;3.96;76.79;96283.41;5053273;28;20060;-77
2021/12/07 11:29:39;;;;;;;2.67;1.90;;;;;;;4.15;76.54;96279.84;5043386;28;20060;-75
2021/12/07 11:31:33;;;;;;;6.20;2.05;;;;;;;4.32;74.69;96291.09;5032837;28;20049;-75
2021/12/07 11:34:08;;;;;;;4.55;2.55;;;;;;;4.40;75.21;96283.44;5032739;28;20048;-77
2021/12/07 11:36:38;;;;;;;6.03;2.42;;;;;;;4.51;74.88;96270.25;5032770;28;20054;-76
2021/12/07 11:39:20;;;;;;;4.15;2.03;;;;;;;4.82;75.30;96282.72;5033053;28;20062;-75
2021/12/07 11:41:52;;;;;;;4.25;2.38;;;;;;;5.19;74.33;96281.59;5033608;28;20053;-75
2021/12/07 11:44:21;;;;;;;3.53;1.90;;;;;;;5.57;73.25;96272.50;5032903;28;20057;-75
2021/12/07 11:46:52;;;;;;;5.82;2.35;;;;;;;6.94;70.16;96259.84;5032262;28;20140;-74
2021/12/07 11:49:22;;;;;;;4.32;2.38;;;;;;;8.53;65.00;96266.34;5032880;28;20050;-73
2021/12/07 11:51:53;;;;;;;4.60;2.25;;;;;;;9.76;60.57;96264.91;5033692;28;20573;-77
2021/12/07 11:54:23;;;;;;;7.45;2.30;;;;;;;9.96;57.29;96252.09;5033051;28;20069;-77
2021/12/07 11:56:52;;;;;;;2.63;1.60;;;;;;;9.35;59.30;96260.25;5033637;28;20060;-76
2021/12/07 11:59:20;;;;;;;8.40;1.90;;;;;;;9.01;60.52;96265.03;5034216;28;20060;-75
2021/12/07 12:01:49;;;;;;;5.50;1.73;;;;;;;8.29;61.91;96264.72;5034683;28;20049;-75
2021/12/07 12:04:20;;;;;;;5.63;2.10;;;;;;;7.52;63.26;96262.97;5033193;28;20061;-77
2021/12/07 12:06:49;;;;;;;4.57;1.92;;;;;;;6.97;65.55;96251.72;5033789;28;20057;-76
2021/12/07 12:09:17;;;;;;;3.92;2.28;;;;;;;6.58;67.14;96255.88;5034880;28;20057;-75
2021/12/07 12:11:55;;;;;;;5.65;2.67;;;;;;;6.29;68.14;96260.75;5034241;28;20057;-75
2021/12/07 12:14:39;;;;;;;4.13;1.52;;;;;;;6.02;66.28;96265.31;5033845;28;20423;-75
2021/12/07 12:17:10;;;;;;;5.03;1.73;;;;;;;5.82;67.26;96276.91;5033581;28;20053;-75
2021/12/07 12:19:56;;;;;;;6.32;2.40;;;;;;;5.66;68.57;96275.91;5033692;28;20072;-75
2021/12/07 12:22:31;;;;;;;15.00;3.05;;;;;;;5.56;69.66;96264.91;5033541;28;20522;-75
2021/12/07 12:25:00;;;;;;;5.50;1.92;;;;;;;5.49;70.30;96271.69;5032900;28;20069;-76
2021/12/07 12:27:33;;;;;;;3.80;1.58;;;;;;;5.41;70.30;96258.72;5032277;28;20054;-75
2021/12/07 12:30:06;;;;;;;7.63;2.22;;;;;;;5.32;70.18;96266.44;5033056;28;20513;-75
2021/12/07 12:32:37;;;;;;;9.23;2.30;;;;;;;5.26;70.89;96254.13;5032930;28;20049;-74
2021/12/07 12:35:09;;;;;;;3.05;2.00;;;;;;;5.23;71.02;96251.06;5033014;28;20400;-74
2021/12/07 12:37:39;;;;;;;10.05;2.30;;;;;;;5.19;70.52;96252.34;5032259;28;20050;-75
2021/12/07 12:40:09;;;;;;;7.45;2.47;;;;;;;5.14;70.17;96248.44;5032604;28;20550;-74
2021/12/07 12:42:40;;;;;;;5.78;1.85;;;;;;;5.12;71.38;96249.56;5033244;28;20056;-74
2021/12/07 12:45:18;;;;;;;9.43;2.50;;;;;;;5.11;71.76;96240.19;5032372;28;20430;-77
2021/12/07 12:47:46;;;;;;;4.13;2.20;;;;;;;5.08;71.58;96236.13;5032358;28;20056;-77
2021/12/07 12:50:19;;;;;;;4.45;1.60;;;;;;;5.03;72.06;96237.56;5032505;28;20518;-74
2021/12/07 12:52:49;;;;;;;3.10;1.67;;;;;;;5.00;71.39;96232.72;5032599;28;20052;-75
2021/12/07 12:55:40;;;;;;;4.68;1.92;;;;;;;4.98;72.84;96232.06;5032422;28;20046;-75
2021/12/07 12:58:12;;;;;;;5.97;1.65;;;;;;;4.94;70.86;96234.97;5032018;28;20507;-75
2021/12/07 13:01:04;;;;;;;4.07;1.75;;;;;;;4.92;71.33;96236.91;5032181;28;20150;-75
2021/12/07 13:03:55;;;;;;;3.55;1.65;;;;;;;4.89;72.28;96229.44;5032010;28;20131;-76
2021/12/07 13:06:51;;;;;;;5.10;1.75;;;;;;;4.85;71.78;96225.53;5032152;28;20045;-75
2021/12/07 13:09:29;;;;;;;3.67;1.83;;;;;;;4.83;71.43;96219.75;5035906;28;20050;-74
2021/12/07 13:11:59;;;;;;;3.15;1.45;;;;;;;4.80;70.88;96221.81;5036250;28;20068;-75
2021/12/07 13:14:37;;;;;;;3.60;1.60;;;;;;;4.76;70.05;96216.13;5035889;28;20140;-75
2021/12/07 13:17:15;;;;;;;3.25;1.30;;;;;;;4.71;69.29;96206.25;5036115;28;20119;-75
2021/12/07 13:20:12;;;;;;;2.50;1.55;;;;;;;4.69;71.26;96209.97;5036232;28;20062;-75
2021/12/07 13:22:43;;;;;;;4.40;1.95;;;;;;;4.70;70.47;96206.41;5036149;28;20072;-75